EGHI/SOU METAR and TAF weather

Enter ICAO airport designator
Station Type Date Time Source
EGHI METAR 2019/04/19 21:20 UTC NOAA

EGHI 192120Z 00000KT CAVOK 09/06 Q1030


Station Type Date Time Source
EGHI Decoded METAR 2019/04/19 21:20 UTC NOAA

Southampton / Weather Centre, United Kingdom (EGHI) 50-54N 001-24W 0M
Apr 19, 2019 - 05:20 PM EDT / 2019.04.19 2120 UTC
Wind: Calm:0
Visibility: greater than 7 mile(s):0
Temperature: 48 F (9 C)
Dew Point: 42 F (6 C)
Relative Humidity: 81%
Pressure (altimeter): 30.42 in. Hg (1030 hPa)
ob: EGHI 192120Z 00000KT CAVOK 09/06 Q1030
cycle: 21

Station Type Date Time Source
EGHI TAF 2016/03/02 12:00 UTC NOAA

TAF EGHI 021104Z 0212/0221 28015G25KT 9999 SCT020
TEMPO 0212/0221 29020G35KT PROB30
TEMPO 0212/0213 4000 SHRA BKN012CB
TEMPO 0218/0221 BKN014

Example: see airport list